sensor_id;sensor_type;location;lat;lon;timestamp;pressure;altitude;pressure_sealevel;temperature;humidity
67457;BME280;54319;52.038;4.640;2023-07-29T00:02:09;100822.91;;;17.55;100.00
67457;BME280;54319;52.038;4.640;2023-07-29T00:04:36;100818.53;;;17.59;100.00
67457;BME280;54319;52.038;4.640;2023-07-29T00:07:03;100814.09;;;17.58;100.00
67457;BME280;54319;52.038;4.640;2023-07-29T00:09:31;100804.94;;;17.52;100.00
67457;BME280;54319;52.038;4.640;2023-07-29T00:11:58;100808.53;;;17.53;100.00
67457;BME280;54319;52.038;4.640;2023-07-29T00:14:34;100796.97;;;17.56;100.00
67457;BME280;54319;52.038;4.640;2023-07-29T00:17:02;100804.16;;;17.57;100.00
67457;BME280;54319;52.038;4.640;2023-07-29T00:19:29;100796.41;;;17.54;100.00
67457;BME280;54319;52.038;4.640;2023-07-29T00:21:56;100789.75;;;17.49;100.00
67457;BME280;54319;52.038;4.640;2023-07-29T00:24:24;100799.75;;;17.56;100.00
67457;BME280;54319;52.038;4.640;2023-07-29T00:26:51;100795.84;;;17.52;100.00
67457;BME280;54319;52.038;4.640;2023-07-29T00:29:17;100793.03;;;17.46;100.00
67457;BME280;54319;52.038;4.640;2023-07-29T00:31:46;100794.03;;;17.40;100.00
67457;BME280;54319;52.038;4.640;2023-07-29T00:34:14;100798.41;;;17.36;100.00
67457;BME280;54319;52.038;4.640;2023-07-29T00:36:44;100798.38;;;17.31;100.00
67457;BME280;54319;52.038;4.640;2023-07-29T00:39:11;100787.81;;;17.23;100.00
67457;BME280;54319;52.038;4.640;2023-07-29T00:41:54;100792.47;;;17.22;100.00
67457;BME280;54319;52.038;4.640;2023-07-29T00:44:20;100778.84;;;17.10;100.00
67457;BME280;54319;52.038;4.640;2023-07-29T00:46:48;100789.09;;;17.15;100.00
67457;BME280;54319;52.038;4.640;2023-07-29T00:49:17;100790.44;;;17.12;100.00
67457;BME280;54319;52.038;4.640;2023-07-29T00:51:44;100789.31;;;17.08;100.00
67457;BME280;54319;52.038;4.640;2023-07-29T00:54:11;100784.88;;;17.07;100.00
67457;BME280;54319;52.038;4.640;2023-07-29T00:56:40;100764.84;;;16.95;100.00
67457;BME280;54319;52.038;4.640;2023-07-29T00:59:06;100789.81;;;17.05;100.00
67457;BME280;54319;52.038;4.640;2023-07-29T01:01:40;100786.47;;;17.03;100.00
67457;BME280;54319;52.038;4.640;2023-07-29T01:04:07;100780.91;;;16.98;100.00
67457;BME280;54319;52.038;4.640;2023-07-29T01:06:41;100768.00;;;16.81;100.00
67457;BME280;54319;52.038;4.640;2023-07-29T01:09:15;100783.72;;;17.03;100.00
67457;BME280;54319;52.038;4.640;2023-07-29T01:11:57;100780.03;;;16.97;100.00
67457;BME280;54319;52.038;4.640;2023-07-29T01:14:32;100777.03;;;16.99;100.00
67457;BME280;54319;52.038;4.640;2023-07-29T01:17:03;100754.53;;;16.85;100.00
67457;BME280;54319;52.038;4.640;2023-07-29T01:20:01;100766.59;;;17.01;100.00
67457;BME280;54319;52.038;4.640;2023-07-29T01:22:32;100768.69;;;16.93;100.00
67457;BME280;54319;52.038;4.640;2023-07-29T01:25:01;100768.44;;;16.95;100.00
67457;BME280;54319;52.038;4.640;2023-07-29T01:27:29;100768.78;;;16.99;100.00
67457;BME280;54319;52.038;4.640;2023-07-29T01:29:57;100766.50;;;16.96;100.00
67457;BME280;54319;52.038;4.640;2023-07-29T01:32:41;100765.69;;;16.95;100.00
67457;BME280;54319;52.038;4.640;2023-07-29T01:35:15;100775.06;;;16.94;100.00
67457;BME280;54319;52.038;4.640;2023-07-29T01:37:46;100767.03;;;16.92;100.00
67457;BME280;54319;52.038;4.640;2023-07-29T01:40:16;100749.28;;;16.83;100.00
67457;BME280;54319;52.038;4.640;2023-07-29T01:42:44;100767.03;;;16.92;100.00
67457;BME280;54319;52.038;4.640;2023-07-29T01:45:11;100768.38;;;16.90;100.00
67457;BME280;54319;52.038;4.640;2023-07-29T01:47:38;100761.47;;;16.87;100.00
67457;BME280;54319;52.038;4.640;2023-07-29T01:50:07;100739.53;;;16.75;100.00
67457;BME280;54319;52.038;4.640;2023-07-29T01:52:34;100750.72;;;16.86;100.00
67457;BME280;54319;52.038;4.640;2023-07-29T01:55:01;100760.38;;;16.88;100.00
67457;BME280;54319;52.038;4.640;2023-07-29T01:57:29;100750.44;;;16.87;100.00
67457;BME280;54319;52.038;4.640;2023-07-29T01:59:55;100753.72;;;16.84;100.00
67457;BME280;54319;52.038;4.640;2023-07-29T02:02:22;100750.38;;;16.82;100.00
67457;BME280;54319;52.038;4.640;2023-07-29T02:04:49;100739.53;;;16.75;100.00
67457;BME280;54319;52.038;4.640;2023-07-29T02:07:17;100742.00;;;16.72;100.00
67457;BME280;54319;52.038;4.640;2023-07-29T02:09:44;100745.91;;;16.76;100.00
67457;BME280;54319;52.038;4.640;2023-07-29T02:12:12;100754.69;;;16.73;100.00
67457;BME280;54319;52.038;4.640;2023-07-29T02:14:40;100734.72;;;16.66;100.00
67457;BME280;54319;52.038;4.640;2023-07-29T02:17:07;100745.25;;;16.69;100.00
67457;BME280;54319;52.038;4.640;2023-07-29T02:19:34;100740.19;;;16.60;100.00
67457;BME280;54319;52.038;4.640;2023-07-29T02:22:02;100745.00;;;16.70;100.00
67457;BME280;54319;52.038;4.640;2023-07-29T02:24:29;100729.94;;;16.56;100.00
67457;BME280;54319;52.038;4.640;2023-07-29T02:26:55;100727.06;;;16.68;100.00
67457;BME280;54319;52.038;4.640;2023-07-29T02:29:28;100735.81;;;16.64;100.00
67457;BME280;54319;52.038;4.640;2023-07-29T02:31:57;100729.75;;;16.62;100.00
67457;BME280;54319;52.038;4.640;2023-07-29T02:34:24;100731.41;;;16.63;100.00
67457;BME280;54319;52.038;4.640;2023-07-29T02:36:50;100724.94;;;16.53;100.00
67457;BME280;54319;52.038;4.640;2023-07-29T02:39:17;100715.91;;;16.57;100.00
67457;BME280;54319;52.038;4.640;2023-07-29T02:41:44;100725.25;;;16.56;100.00
67457;BME280;54319;52.038;4.640;2023-07-29T02:44:10;100709.25;;;16.53;100.00
67457;BME280;54319;52.038;4.640;2023-07-29T02:46:37;100687.59;;;16.40;100.00
67457;BME280;54319;52.038;4.640;2023-07-29T02:49:21;100682.84;;;16.35;100.00
67457;BME280;54319;52.038;4.640;2023-07-29T02:51:49;100691.44;;;16.39;100.00
67457;BME280;54319;52.038;4.640;2023-07-29T02:54:15;100694.78;;;16.41;100.00
67457;BME280;54319;52.038;4.640;2023-07-29T02:56:42;100701.38;;;16.40;100.00
67457;BME280;54319;52.038;4.640;2023-07-29T02:59:24;100697.19;;;16.37;100.00
67457;BME280;54319;52.038;4.640;2023-07-29T03:01:51;100718.41;;;16.37;100.00
67457;BME280;54319;52.038;4.640;2023-07-29T03:04:20;100713.72;;;16.37;100.00
67457;BME280;54319;52.038;4.640;2023-07-29T03:06:58;100703.09;;;16.24;100.00
67457;BME280;54319;52.038;4.640;2023-07-29T03:09:26;100696.16;;;16.21;100.00
67457;BME280;54319;52.038;4.640;2023-07-29T03:11:54;100710.84;;;16.27;100.00
67457;BME280;54319;52.038;4.640;2023-07-29T03:14:21;100691.09;;;16.13;100.00
67457;BME280;54319;52.038;4.640;2023-07-29T03:16:48;100727.34;;;16.27;100.00
67457;BME280;54319;52.038;4.640;2023-07-29T03:19:15;100727.34;;;16.27;100.00
67457;BME280;54319;52.038;4.640;2023-07-29T03:21:43;100722.09;;;16.25;100.00
67457;BME280;54319;52.038;4.640;2023-07-29T03:24:09;100724.31;;;16.28;100.00
67457;BME280;54319;52.038;4.640;2023-07-29T03:26:36;100713.69;;;16.15;100.00
67457;BME280;54319;52.038;4.640;2023-07-29T03:29:03;100730.69;;;16.29;100.00
67457;BME280;54319;52.038;4.640;2023-07-29T03:31:29;100730.44;;;16.30;100.00
67457;BME280;54319;52.038;4.640;2023-07-29T03:33:56;100725.16;;;16.29;100.00
67457;BME280;54319;52.038;4.640;2023-07-29T03:36:22;100725.16;;;16.29;100.00
67457;BME280;54319;52.038;4.640;2023-07-29T03:38:52;100718.81;;;16.28;100.00
67457;BME280;54319;52.038;4.640;2023-07-29T03:41:21;100736.00;;;16.35;100.00
67457;BME280;54319;52.038;4.640;2023-07-29T03:43:48;100727.16;;;16.33;100.00
67457;BME280;54319;52.038;4.640;2023-07-29T03:46:14;100736.00;;;16.35;100.00
67457;BME280;54319;52.038;4.640;2023-07-29T03:48:44;100737.69;;;16.37;100.00
67457;BME280;54319;52.038;4.640;2023-07-29T03:51:11;100735.56;;;16.44;100.00
67457;BME280;54319;52.038;4.640;2023-07-29T03:53:38;100750.50;;;16.48;100.00
67457;BME280;54319;52.038;4.640;2023-07-29T03:56:06;100697.47;;;16.35;100.00
67457;BME280;54319;52.038;4.640;2023-07-29T03:58:33;100721.34;;;16.52;100.00
67457;BME280;54319;52.038;4.640;2023-07-29T04:00:59;100715.84;;;16.52;100.00
67457;BME280;54319;52.038;4.640;2023-07-29T04:03:36;100736.03;;;16.58;100.00
67457;BME280;54319;52.038;4.640;2023-07-29T04:06:03;100728.66;;;16.63;100.00
67457;BME280;54319;52.038;4.640;2023-07-29T04:08:30;100693.81;;;16.30;100.00
67457;BME280;54319;52.038;4.640;2023-07-29T04:10:56;100737.41;;;16.60;100.00
67457;BME280;54319;52.038;4.640;2023-07-29T04:13:25;100728.84;;;16.57;100.00
67457;BME280;54319;52.038;4.640;2023-07-29T04:15:51;100732.81;;;16.66;100.00
67457;BME280;54319;52.038;4.640;2023-07-29T04:18:18;100715.38;;;16.60;100.00
67457;BME280;54319;52.038;4.640;2023-07-29T04:20:45;100715.22;;;16.67;100.00
67457;BME280;54319;52.038;4.640;2023-07-29T04:23:11;100670.50;;;16.38;100.00
67457;BME280;54319;52.038;4.640;2023-07-29T04:25:38;100729.22;;;16.66;100.00
67457;BME280;54319;52.038;4.640;2023-07-29T04:28:04;100743.50;;;16.62;100.00
67457;BME280;54319;52.038;4.640;2023-07-29T04:30:34;100723.66;;;16.60;100.00
67457;BME280;54319;52.038;4.640;2023-07-29T04:33:01;100718.66;;;16.57;100.00
67457;BME280;54319;52.038;4.640;2023-07-29T04:35:28;100724.56;;;16.66;100.00
67457;BME280;54319;52.038;4.640;2023-07-29T04:37:54;100735.34;;;16.68;100.00
67457;BME280;54319;52.038;4.640;2023-07-29T04:40:21;100720.91;;;16.60;100.00
67457;BME280;54319;52.038;4.640;2023-07-29T04:42:49;100734.56;;;16.72;100.00
67457;BME280;54319;52.038;4.640;2023-07-29T04:45:16;100723.81;;;16.71;100.00
67457;BME280;54319;52.038;4.640;2023-07-29T04:47:57;100735.19;;;16.79;100.00
67457;BME280;54319;52.038;4.640;2023-07-29T04:50:24;100736.03;;;16.80;100.00
67457;BME280;54319;52.038;4.640;2023-07-29T04:52:50;100747.69;;;16.87;100.00
67457;BME280;54319;52.038;4.640;2023-07-29T04:55:18;100725.53;;;16.77;100.00
67457;BME280;54319;52.038;4.640;2023-07-29T04:57:51;100680.09;;;16.57;100.00
67457;BME280;54319;52.038;4.640;2023-07-29T05:00:18;100745.91;;;16.98;100.00
67457;BME280;54319;52.038;4.640;2023-07-29T05:02:44;100725.00;;;16.80;100.00
67457;BME280;54319;52.038;4.640;2023-07-29T05:05:12;100738.66;;;16.92;100.00
67457;BME280;54319;52.038;4.640;2023-07-29T05:07:39;100755.56;;;17.01;100.00
67457;BME280;54319;52.038;4.640;2023-07-29T05:10:07;100729.03;;;16.95;100.00
67457;BME280;54319;52.038;4.640;2023-07-29T05:12:33;100735.19;;;17.02;100.00
67457;BME280;54319;52.038;4.640;2023-07-29T05:15:00;100744.03;;;17.04;100.00
67457;BME280;54319;52.038;4.640;2023-07-29T05:17:27;100730.59;;;17.07;100.00
67457;BME280;54319;52.038;4.640;2023-07-29T05:19:54;100732.56;;;17.12;100.00
67457;BME280;54319;52.038;4.640;2023-07-29T05:22:22;100727.06;;;17.12;100.00
67457;BME280;54319;52.038;4.640;2023-07-29T05:24:50;100737.03;;;17.18;100.00
67457;BME280;54319;52.038;4.640;2023-07-29T05:27:16;100723.78;;;17.15;100.00
67457;BME280;54319;52.038;4.640;2023-07-29T05:29:43;100731.63;;;17.29;100.00
67457;BME280;54319;52.038;4.640;2023-07-29T05:32:10;100730.72;;;17.23;100.00
67457;BME280;54319;52.038;4.640;2023-07-29T05:34:37;100718.41;;;17.31;100.00
67457;BME280;54319;52.038;4.640;2023-07-29T05:37:20;100720.59;;;17.29;100.00
67457;BME280;54319;52.038;4.640;2023-07-29T05:39:48;100728.72;;;17.41;100.00
67457;BME280;54319;52.038;4.640;2023-07-29T05:42:15;100722.44;;;17.45;100.00
67457;BME280;54319;52.038;4.640;2023-07-29T05:44:42;100734.56;;;17.44;100.00
67457;BME280;54319;52.038;4.640;2023-07-29T05:47:09;100726.31;;;17.49;100.00
67457;BME280;54319;52.038;4.640;2023-07-29T05:49:35;100727.47;;;17.54;100.00
67457;BME280;54319;52.038;4.640;2023-07-29T05:52:03;100723.66;;;17.60;100.00
67457;BME280;54319;52.038;4.640;2023-07-29T05:54:29;100729.72;;;17.62;100.00
67457;BME280;54319;52.038;4.640;2023-07-29T05:56:57;100729.41;;;17.58;100.00
67457;BME280;54319;52.038;4.640;2023-07-29T05:59:24;100736.59;;;17.59;100.00
67457;BME280;54319;52.038;4.640;2023-07-29T06:01:50;100740.00;;;17.67;100.00
67457;BME280;54319;52.038;4.640;2023-07-29T06:04:17;100746.28;;;17.62;100.00
67457;BME280;54319;52.038;4.640;2023-07-29T06:06:44;100750.19;;;17.66;100.00
67457;BME280;54319;52.038;4.640;2023-07-29T06:09:10;100748.00;;;17.68;100.00
67457;BME280;54319;52.038;4.640;2023-07-29T06:11:37;100736.66;;;17.64;100.00
67457;BME280;54319;52.038;4.640;2023-07-29T06:14:05;100714.44;;;17.49;100.00
67457;BME280;54319;52.038;4.640;2023-07-29T06:16:34;100739.78;;;17.78;100.00
67457;BME280;54319;52.038;4.640;2023-07-29T06:19:01;100746.72;;;17.81;100.00
67457;BME280;54319;52.038;4.640;2023-07-29T06:21:27;100728.25;;;17.82;100.00
67457;BME280;54319;52.038;4.640;2023-07-29T06:23:54;100750.16;;;17.99;100.00
67457;BME280;54319;52.038;4.640;2023-07-29T06:26:21;100743.63;;;18.05;100.00
67457;BME280;54319;52.038;4.640;2023-07-29T06:28:47;100744.44;;;18.05;100.00
67457;BME280;54319;52.038;4.640;2023-07-29T06:31:15;100743.91;;;18.08;100.00
67457;BME280;54319;52.038;4.640;2023-07-29T06:33:42;100730.94;;;18.04;100.00
67457;BME280;54319;52.038;4.640;2023-07-29T06:36:08;100754.44;;;18.17;100.00
67457;BME280;54319;52.038;4.640;2023-07-29T06:38:35;100745.34;;;18.16;100.00
67457;BME280;54319;52.038;4.640;2023-07-29T06:41:02;100731.75;;;18.04;100.00
67457;BME280;54319;52.038;4.640;2023-07-29T06:43:28;100747.34;;;18.21;100.00
67457;BME280;54319;52.038;4.640;2023-07-29T06:45:57;100745.16;;;18.28;100.00
67457;BME280;54319;52.038;4.640;2023-07-29T06:48:27;100753.53;;;18.44;100.00
67457;BME280;54319;52.038;4.640;2023-07-29T06:50:54;100755.22;;;18.50;100.00
67457;BME280;54319;52.038;4.640;2023-07-29T06:53:25;100727.00;;;18.43;100.00
67457;BME280;54319;52.038;4.640;2023-07-29T06:55:52;100756.94;;;18.61;100.00
67457;BME280;54319;52.038;4.640;2023-07-29T06:58:19;100748.41;;;18.73;100.00
67457;BME280;54319;52.038;4.640;2023-07-29T07:00:45;100750.94;;;18.85;100.00
67457;BME280;54319;52.038;4.640;2023-07-29T07:03:12;100752.06;;;18.89;100.00
67457;BME280;54319;52.038;4.640;2023-07-29T07:05:40;100737.44;;;18.89;100.00
67457;BME280;54319;52.038;4.640;2023-07-29T07:08:06;100748.56;;;19.04;100.00
67457;BME280;54319;52.038;4.640;2023-07-29T07:10:33;100740.31;;;19.20;100.00
67457;BME280;54319;52.038;4.640;2023-07-29T07:13:00;100756.31;;;19.13;100.00
67457;BME280;54319;52.038;4.640;2023-07-29T07:15:27;100752.16;;;19.05;100.00
67457;BME280;54319;52.038;4.640;2023-07-29T07:17:53;100753.28;;;19.04;100.00
67457;BME280;54319;52.038;4.640;2023-07-29T07:20:20;100751.34;;;19.09;100.00
67457;BME280;54319;52.038;4.640;2023-07-29T07:22:48;100762.16;;;19.16;100.00
67457;BME280;54319;52.038;4.640;2023-07-29T07:25:15;100757.75;;;19.31;99.88
67457;BME280;54319;52.038;4.640;2023-07-29T07:27:41;100748.13;;;19.54;96.89
67457;BME280;54319;52.038;4.640;2023-07-29T07:30:09;100758.91;;;19.66;93.75
67457;BME280;54319;52.038;4.640;2023-07-29T07:32:43;100769.97;;;19.61;93.97
67457;BME280;54319;52.038;4.640;2023-07-29T07:35:10;100761.97;;;20.16;92.18
67457;BME280;54319;52.038;4.640;2023-07-29T07:37:37;100771.19;;;20.93;87.91
67457;BME280;54319;52.038;4.640;2023-07-29T07:40:06;100768.97;;;21.45;82.97
67457;BME280;54319;52.038;4.640;2023-07-29T07:42:33;100768.31;;;21.98;80.10
67457;BME280;54319;52.038;4.640;2023-07-29T07:44:59;100767.19;;;22.00;78.31
67457;BME280;54319;52.038;4.640;2023-07-29T07:47:26;100763.38;;;22.20;78.03
67457;BME280;54319;52.038;4.640;2023-07-29T07:49:53;100750.56;;;22.24;74.40
67457;BME280;54319;52.038;4.640;2023-07-29T07:52:20;100771.97;;;22.23;75.09
67457;BME280;54319;52.038;4.640;2023-07-29T07:54:51;100773.84;;;21.69;75.06
67457;BME280;54319;52.038;4.640;2023-07-29T07:57:19;100784.72;;;21.10;77.43
67457;BME280;54319;52.038;4.640;2023-07-29T07:59:46;100761.06;;;20.52;79.08
67457;BME280;54319;52.038;4.640;2023-07-29T08:02:13;100788.22;;;20.45;80.99
67457;BME280;54319;52.038;4.640;2023-07-29T08:04:39;100784.56;;;20.70;80.33
67457;BME280;54319;52.038;4.640;2023-07-29T08:07:06;100790.59;;;21.03;80.29
67457;BME280;54319;52.038;4.640;2023-07-29T08:09:32;100773.72;;;21.39;77.21
67457;BME280;54319;52.038;4.640;2023-07-29T08:12:00;100784.03;;;21.79;76.20
67457;BME280;54319;52.038;4.640;2023-07-29T08:14:27;100787.94;;;21.73;74.41
67457;BME280;54319;52.038;4.640;2023-07-29T08:16:54;100779.78;;;21.87;75.96
67457;BME280;54319;52.038;4.640;2023-07-29T08:19:21;100780.59;;;21.47;74.86
67457;BME280;54319;52.038;4.640;2023-07-29T08:21:47;100804.50;;;21.43;76.10
67457;BME280;54319;52.038;4.640;2023-07-29T08:24:14;100785.38;;;21.36;76.16
67457;BME280;54319;52.038;4.640;2023-07-29T08:26:40;100792.13;;;21.25;75.27
67457;BME280;54319;52.038;4.640;2023-07-29T08:29:07;100800.88;;;20.92;76.93
67457;BME280;54319;52.038;4.640;2023-07-29T08:31:35;100792.53;;;20.98;76.87
67457;BME280;54319;52.038;4.640;2023-07-29T08:34:02;100790.88;;;20.96;77.25
67457;BME280;54319;52.038;4.640;2023-07-29T08:36:28;100788.66;;;20.99;76.20
67457;BME280;54319;52.038;4.640;2023-07-29T08:38:55;100768.19;;;20.89;77.75
67457;BME280;54319;52.038;4.640;2023-07-29T08:41:26;100798.31;;;21.01;78.32
67457;BME280;54319;52.038;4.640;2023-07-29T08:44:01;100797.00;;;20.93;76.92
67457;BME280;54319;52.038;4.640;2023-07-29T08:46:29;100793.13;;;20.74;78.27
67457;BME280;54319;52.038;4.640;2023-07-29T08:48:57;100807.31;;;20.67;78.24
67457;BME280;54319;52.038;4.640;2023-07-29T08:51:27;100811.75;;;20.68;80.04
67457;BME280;54319;52.038;4.640;2023-07-29T08:53:53;100812.03;;;20.61;80.04
67457;BME280;54319;52.038;4.640;2023-07-29T08:56:20;100805.09;;;20.59;82.19
67457;BME280;54319;52.038;4.640;2023-07-29T08:58:48;100808.69;;;20.70;82.81
67457;BME280;54319;52.038;4.640;2023-07-29T09:01:15;100818.69;;;20.60;82.48
67457;BME280;54319;52.038;4.640;2023-07-29T09:03:42;100811.50;;;20.44;84.49
67457;BME280;54319;52.038;4.640;2023-07-29T09:06:10;100804.59;;;20.25;85.26
67457;BME280;54319;52.038;4.640;2023-07-29T09:08:38;100775.81;;;20.16;85.27
67457;BME280;54319;52.038;4.640;2023-07-29T09:11:05;100809.88;;;20.32;85.59
67457;BME280;54319;52.038;4.640;2023-07-29T09:13:33;100802.41;;;20.28;85.91
67457;BME280;54319;52.038;4.640;2023-07-29T09:15:59;100819.88;;;20.18;88.25
67457;BME280;54319;52.038;4.640;2023-07-29T09:18:27;100815.41;;;20.01;90.59
67457;BME280;54319;52.038;4.640;2023-07-29T09:20:58;100789.09;;;19.67;93.33
67457;BME280;54319;52.038;4.640;2023-07-29T09:23:27;100802.59;;;19.48;98.08
67457;BME280;54319;52.038;4.640;2023-07-29T09:26:00;100810.28;;;19.26;99.49
67457;BME280;54319;52.038;4.640;2023-07-29T09:28:32;100811.09;;;19.16;100.00
67457;BME280;54319;52.038;4.640;2023-07-29T09:30:59;100775.59;;;18.97;100.00
67457;BME280;54319;52.038;4.640;2023-07-29T09:33:26;100807.84;;;19.34;100.00
67457;BME280;54319;52.038;4.640;2023-07-29T09:35:53;100807.59;;;19.51;100.00
67457;BME280;54319;52.038;4.640;2023-07-29T09:38:27;100815.91;;;19.67;100.00
67457;BME280;54319;52.038;4.640;2023-07-29T09:40:56;100813.50;;;19.91;100.00
67457;BME280;54319;52.038;4.640;2023-07-29T09:43:28;100811.56;;;20.13;99.25
67457;BME280;54319;52.038;4.640;2023-07-29T09:45:59;100816.53;;;20.05;96.17
67457;BME280;54319;52.038;4.640;2023-07-29T09:48:26;100798.25;;;20.15;95.60
67457;BME280;54319;52.038;4.640;2023-07-29T09:50:54;100812.66;;;20.22;96.58
67457;BME280;54319;52.038;4.640;2023-07-29T09:53:21;100799.91;;;20.26;96.16
67457;BME280;54319;52.038;4.640;2023-07-29T09:55:50;100801.56;;;20.22;92.85
67457;BME280;54319;52.038;4.640;2023-07-29T09:58:26;100800.47;;;20.13;93.21
67457;BME280;54319;52.038;4.640;2023-07-29T10:00:53;100807.13;;;20.17;93.72
67457;BME280;54319;52.038;4.640;2023-07-29T10:03:38;100794.66;;;20.04;91.40
67457;BME280;54319;52.038;4.640;2023-07-29T10:06:06;100801.56;;;20.32;93.87
67457;BME280;54319;52.038;4.640;2023-07-29T10:08:33;100804.31;;;20.53;92.22
67457;BME280;54319;52.038;4.640;2023-07-29T10:11:05;100810.09;;;20.57;89.62
67457;BME280;54319;52.038;4.640;2023-07-29T10:13:32;100815.34;;;20.63;90.24
67457;BME280;54319;52.038;4.640;2023-07-29T10:15:58;100797.66;;;20.44;89.76
67457;BME280;54319;52.038;4.640;2023-07-29T10:18:28;100813.72;;;20.42;90.44
67457;BME280;54319;52.038;4.640;2023-07-29T10:20:57;100810.41;;;20.39;91.78
67457;BME280;54319;52.038;4.640;2023-07-29T10:23:24;100824.81;;;20.31;89.75
67457;BME280;54319;52.038;4.640;2023-07-29T10:25:55;100826.47;;;20.32;90.72
67457;BME280;54319;52.038;4.640;2023-07-29T10:28:26;100811.25;;;20.14;92.76
67457;BME280;54319;52.038;4.640;2023-07-29T10:30:54;100819.84;;;20.02;94.85
67457;BME280;54319;52.038;4.640;2023-07-29T10:33:22;100799.03;;;19.74;97.61
67457;BME280;54319;52.038;4.640;2023-07-29T10:35:49;100825.91;;;19.73;99.24
67457;BME280;54319;52.038;4.640;2023-07-29T10:38:16;100817.25;;;19.49;100.00
67457;BME280;54319;52.038;4.640;2023-07-29T10:40:45;100763.09;;;18.79;100.00
67457;BME280;54319;52.038;4.640;2023-07-29T10:43:12;100813.00;;;19.05;100.00
67457;BME280;54319;52.038;4.640;2023-07-29T10:45:46;100825.97;;;19.09;100.00
67457;BME280;54319;52.038;4.640;2023-07-29T10:48:39;100793.25;;;18.80;100.00
67457;BME280;54319;52.038;4.640;2023-07-29T10:51:24;100835.66;;;19.02;100.00
67457;BME280;54319;52.038;4.640;2023-07-29T10:53:55;100829.28;;;19.06;100.00
67457;BME280;54319;52.038;4.640;2023-07-29T10:56:27;100819.34;;;19.05;100.00
67457;BME280;54319;52.038;4.640;2023-07-29T10:58:56;100825.06;;;18.93;100.00
67457;BME280;54319;52.038;4.640;2023-07-29T11:01:28;100825.75;;;19.21;100.00
67457;BME280;54319;52.038;4.640;2023-07-29T11:04:23;100831.06;;;19.38;100.00
67457;BME280;54319;52.038;4.640;2023-07-29T11:07:21;100833.81;;;19.33;100.00
67457;BME280;54319;52.038;4.640;2023-07-29T11:10:00;100825.84;;;19.47;100.00
67457;BME280;54319;52.038;4.640;2023-07-29T11:12:37;100820.88;;;19.60;100.00
67457;BME280;54319;52.038;4.640;2023-07-29T11:15:11;100820.09;;;19.75;100.00
67457;BME280;54319;52.038;4.640;2023-07-29T11:17:41;100794.38;;;20.00;100.00
67457;BME280;54319;52.038;4.640;2023-07-29T11:20:09;100813.13;;;20.71;100.00
67457;BME280;54319;52.038;4.640;2023-07-29T11:22:37;100819.94;;;21.09;100.00
67457;BME280;54319;52.038;4.640;2023-07-29T11:25:05;100807.09;;;21.24;100.00
67457;BME280;54319;52.038;4.640;2023-07-29T11:27:34;100803.31;;;21.54;98.52
67457;BME280;54319;52.038;4.640;2023-07-29T11:30:03;100809.78;;;21.39;97.80
67457;BME280;54319;52.038;4.640;2023-07-29T11:32:30;100810.69;;;21.30;94.88
67457;BME280;54319;52.038;4.640;2023-07-29T11:35:02;100814.63;;;21.23;96.18
67457;BME280;54319;52.038;4.640;2023-07-29T11:37:29;100820.03;;;20.84;95.46
67457;BME280;54319;52.038;4.640;2023-07-29T11:39:55;100806.47;;;20.72;94.86
67457;BME280;54319;52.038;4.640;2023-07-29T11:42:24;100817.59;;;20.41;97.03
67457;BME280;54319;52.038;4.640;2023-07-29T11:44:50;100816.81;;;20.30;97.88
67457;BME280;54319;52.038;4.640;2023-07-29T11:47:17;100822.63;;;20.18;100.00
67457;BME280;54319;52.038;4.640;2023-07-29T11:49:43;100828.72;;;20.15;100.00
67457;BME280;54319;52.038;4.640;2023-07-29T11:52:12;100788.31;;;20.08;99.20
67457;BME280;54319;52.038;4.640;2023-07-29T11:54:39;100801.88;;;20.05;100.00
67457;BME280;54319;52.038;4.640;2023-07-29T11:57:06;100765.84;;;19.79;100.00
67457;BME280;54319;52.038;4.640;2023-07-29T11:59:34;100796.59;;;20.03;100.00
67457;BME280;54319;52.038;4.640;2023-07-29T12:02:01;100830.91;;;20.44;100.00
67457;BME280;54319;52.038;4.640;2023-07-29T12:04:29;100830.06;;;20.53;99.63
67457;BME280;54319;52.038;4.640;2023-07-29T12:06:59;100824.19;;;20.71;99.24
67457;BME280;54319;52.038;4.640;2023-07-29T12:09:27;100814.50;;;20.84;98.90
67457;BME280;54319;52.038;4.640;2023-07-29T12:11:55;100812.69;;;21.19;96.19
67457;BME280;54319;52.038;4.640;2023-07-29T12:14:21;100807.75;;;21.55;89.69
67457;BME280;54319;52.038;4.640;2023-07-29T12:16:48;100811.63;;;21.65;93.28
67457;BME280;54319;52.038;4.640;2023-07-29T12:19:17;100804.44;;;21.53;87.99
67457;BME280;54319;52.038;4.640;2023-07-29T12:21:44;100799.41;;;21.66;90.67
67457;BME280;54319;52.038;4.640;2023-07-29T12:24:11;100807.06;;;21.79;89.17
67457;BME280;54319;52.038;4.640;2023-07-29T12:26:40;100811.03;;;22.03;87.75
67457;BME280;54319;52.038;4.640;2023-07-29T12:29:12;100801.47;;;22.19;85.06
67457;BME280;54319;52.038;4.640;2023-07-29T12:31:39;100763.19;;;21.81;82.07
67457;BME280;54319;52.038;4.640;2023-07-29T12:34:06;100815.00;;;21.96;82.87
67457;BME280;54319;52.038;4.640;2023-07-29T12:36:59;100797.25;;;22.22;82.63
67457;BME280;54319;52.038;4.640;2023-07-29T12:39:26;100805.88;;;22.55;81.21
67457;BME280;54319;52.038;4.640;2023-07-29T12:41:56;100804.38;;;22.33;81.12
67457;BME280;54319;52.038;4.640;2023-07-29T12:44:23;100779.38;;;22.33;80.73
67457;BME280;54319;52.038;4.640;2023-07-29T12:46:56;100793.09;;;22.78;79.73
67457;BME280;54319;52.038;4.640;2023-07-29T12:49:23;100794.81;;;23.18;76.29
67457;BME280;54319;52.038;4.640;2023-07-29T12:51:50;100801.81;;;23.15;74.35